Rosevine, Texas
Current Conditions -  °F | °C
As of 9:55 AM on Thursday 30 Oct 2014 (Local Time) from KJAS Reporting Station
Clear Clear  
Wind Chill: 15°   Ceiling: Unl
Heat Index: 15°   Visibility: 10mi
Dew Point: 10°   Wind: 5mph
Humidity: 70%   Direction: 80°E
Pressure: 30.19"   Gusts: NA
Location:  31.3308°N, 94.0111°W
Report Text: KJAS 301455Z AUTO 08004KT 10SM CLR 15/10 A3019 RMK AO2 T01520097
Loading
Personal Weather Stations






























Interactive Weather Map
Tropical Storm Tracking
New forecast layout! Learn more

10-Day Weather Forecast

Advertisements
Track Severe Weather on mobile